sensor_id;sensor_type;location;lat;lon;timestamp;P1;durP1;ratioP1;P2;durP2;ratioP2
6426;SDS011;3246;42.664;23.308;2023-05-07T00:01:37;13.07;;;9.23;;
6426;SDS011;3246;42.664;23.308;2023-05-07T00:04:04;11.20;;;7.28;;
6426;SDS011;3246;42.664;23.308;2023-05-07T00:06:32;10.50;;;9.00;;
6426;SDS011;3246;42.664;23.308;2023-05-07T00:08:59;8.75;;;7.88;;
6426;SDS011;3246;42.664;23.308;2023-05-07T00:11:26;10.77;;;8.38;;
6426;SDS011;3246;42.664;23.308;2023-05-07T00:13:53;9.00;;;8.05;;
6426;SDS011;3246;42.664;23.308;2023-05-07T00:16:20;10.30;;;8.10;;
6426;SDS011;3246;42.664;23.308;2023-05-07T00:18:48;10.18;;;8.07;;
6426;SDS011;3246;42.664;23.308;2023-05-07T00:21:15;9.52;;;8.38;;
6426;SDS011;3246;42.664;23.308;2023-05-07T00:23:42;8.85;;;8.00;;
6426;SDS011;3246;42.664;23.308;2023-05-07T00:26:08;12.52;;;9.32;;
6426;SDS011;3246;42.664;23.308;2023-05-07T00:28:35;10.98;;;8.50;;
6426;SDS011;3246;42.664;23.308;2023-05-07T00:31:02;9.00;;;8.20;;
6426;SDS011;3246;42.664;23.308;2023-05-07T00:33:29;13.27;;;10.25;;
6426;SDS011;3246;42.664;23.308;2023-05-07T00:35:57;10.98;;;8.82;;
6426;SDS011;3246;42.664;23.308;2023-05-07T00:38:26;11.50;;;8.98;;
6426;SDS011;3246;42.664;23.308;2023-05-07T00:40:52;12.85;;;7.60;;
6426;SDS011;3246;42.664;23.308;2023-05-07T00:43:19;10.38;;;8.45;;
6426;SDS011;3246;42.664;23.308;2023-05-07T00:45:55;10.82;;;7.57;;
6426;SDS011;3246;42.664;23.308;2023-05-07T00:48:21;8.75;;;8.00;;
6426;SDS011;3246;42.664;23.308;2023-05-07T00:50:49;11.93;;;9.52;;
6426;SDS011;3246;42.664;23.308;2023-05-07T00:53:18;9.45;;;8.63;;
6426;SDS011;3246;42.664;23.308;2023-05-07T00:55:45;10.93;;;8.57;;
6426;SDS011;3246;42.664;23.308;2023-05-07T00:58:12;9.80;;;8.90;;
6426;SDS011;3246;42.664;23.308;2023-05-07T01:00:39;15.77;;;9.68;;
6426;SDS011;3246;42.664;23.308;2023-05-07T01:03:06;14.52;;;8.50;;
6426;SDS011;3246;42.664;23.308;2023-05-07T01:05:33;9.73;;;8.30;;
6426;SDS011;3246;42.664;23.308;2023-05-07T01:08:01;11.10;;;10.00;;
6426;SDS011;3246;42.664;23.308;2023-05-07T01:10:31;8.93;;;8.15;;
6426;SDS011;3246;42.664;23.308;2023-05-07T01:12:58;9.45;;;8.45;;
6426;SDS011;3246;42.664;23.308;2023-05-07T01:15:25;10.65;;;9.52;;
6426;SDS011;3246;42.664;23.308;2023-05-07T01:17:52;13.32;;;9.73;;
6426;SDS011;3246;42.664;23.308;2023-05-07T01:20:19;10.70;;;9.60;;
6426;SDS011;3246;42.664;23.308;2023-05-07T01:22:47;10.35;;;9.23;;
6426;SDS011;3246;42.664;23.308;2023-05-07T01:25:15;12.73;;;9.20;;
6426;SDS011;3246;42.664;23.308;2023-05-07T01:27:42;11.52;;;9.52;;
6426;SDS011;3246;42.664;23.308;2023-05-07T01:30:10;10.75;;;9.25;;
6426;SDS011;3246;42.664;23.308;2023-05-07T01:32:38;14.60;;;9.25;;
6426;SDS011;3246;42.664;23.308;2023-05-07T01:35:09;12.77;;;9.43;;
6426;SDS011;3246;42.664;23.308;2023-05-07T01:37:38;10.93;;;8.75;;
6426;SDS011;3246;42.664;23.308;2023-05-07T01:40:07;10.23;;;9.23;;
6426;SDS011;3246;42.664;23.308;2023-05-07T01:42:35;13.93;;;10.15;;
6426;SDS011;3246;42.664;23.308;2023-05-07T01:45:02;13.57;;;9.70;;
6426;SDS011;3246;42.664;23.308;2023-05-07T01:47:29;11.45;;;10.23;;
6426;SDS011;3246;42.664;23.308;2023-05-07T01:49:57;11.55;;;9.90;;
6426;SDS011;3246;42.664;23.308;2023-05-07T01:52:24;12.23;;;9.65;;
6426;SDS011;3246;42.664;23.308;2023-05-07T01:54:51;10.77;;;9.05;;
6426;SDS011;3246;42.664;23.308;2023-05-07T01:57:19;11.85;;;9.30;;
6426;SDS011;3246;42.664;23.308;2023-05-07T01:59:46;10.75;;;9.65;;
6426;SDS011;3246;42.664;23.308;2023-05-07T02:02:13;11.73;;;9.30;;
6426;SDS011;3246;42.664;23.308;2023-05-07T02:04:39;10.13;;;8.77;;
6426;SDS011;3246;42.664;23.308;2023-05-07T02:07:06;8.63;;;7.65;;
6426;SDS011;3246;42.664;23.308;2023-05-07T02:09:33;8.63;;;7.80;;
6426;SDS011;3246;42.664;23.308;2023-05-07T02:11:59;10.98;;;8.13;;
6426;SDS011;3246;42.664;23.308;2023-05-07T02:14:28;10.07;;;7.43;;
6426;SDS011;3246;42.664;23.308;2023-05-07T02:16:55;8.53;;;7.70;;
6426;SDS011;3246;42.664;23.308;2023-05-07T02:19:21;8.15;;;7.30;;
6426;SDS011;3246;42.664;23.308;2023-05-07T02:21:48;9.03;;;7.70;;
6426;SDS011;3246;42.664;23.308;2023-05-07T02:24:16;14.52;;;7.10;;
6426;SDS011;3246;42.664;23.308;2023-05-07T02:26:42;9.23;;;7.50;;
6426;SDS011;3246;42.664;23.308;2023-05-07T02:29:09;9.73;;;8.77;;
6426;SDS011;3246;42.664;23.308;2023-05-07T02:31:37;9.93;;;8.57;;
6426;SDS011;3246;42.664;23.308;2023-05-07T02:34:04;9.27;;;8.23;;
6426;SDS011;3246;42.664;23.308;2023-05-07T02:36:31;12.30;;;8.80;;
6426;SDS011;3246;42.664;23.308;2023-05-07T02:38:58;11.73;;;9.40;;
6426;SDS011;3246;42.664;23.308;2023-05-07T02:41:24;8.97;;;8.17;;
6426;SDS011;3246;42.664;23.308;2023-05-07T02:43:53;14.87;;;10.10;;
6426;SDS011;3246;42.664;23.308;2023-05-07T02:46:20;13.07;;;9.13;;
6426;SDS011;3246;42.664;23.308;2023-05-07T02:48:48;13.37;;;10.57;;
6426;SDS011;3246;42.664;23.308;2023-05-07T02:51:14;11.80;;;9.63;;
6426;SDS011;3246;42.664;23.308;2023-05-07T02:53:42;14.23;;;10.33;;
6426;SDS011;3246;42.664;23.308;2023-05-07T02:56:09;9.00;;;8.10;;
6426;SDS011;3246;42.664;23.308;2023-05-07T02:58:36;8.73;;;7.97;;
6426;SDS011;3246;42.664;23.308;2023-05-07T03:01:04;11.17;;;10.13;;
6426;SDS011;3246;42.664;23.308;2023-05-07T03:03:31;10.13;;;9.13;;
6426;SDS011;3246;42.664;23.308;2023-05-07T03:05:59;9.37;;;8.47;;
6426;SDS011;3246;42.664;23.308;2023-05-07T03:08:26;9.20;;;8.20;;
6426;SDS011;3246;42.664;23.308;2023-05-07T03:10:53;10.03;;;8.87;;
6426;SDS011;3246;42.664;23.308;2023-05-07T03:13:20;13.07;;;9.13;;
6426;SDS011;3246;42.664;23.308;2023-05-07T03:15:46;13.40;;;8.80;;
6426;SDS011;3246;42.664;23.308;2023-05-07T03:18:13;13.50;;;9.00;;
6426;SDS011;3246;42.664;23.308;2023-05-07T03:20:40;14.17;;;8.30;;
6426;SDS011;3246;42.664;23.308;2023-05-07T03:23:08;11.20;;;9.00;;
6426;SDS011;3246;42.664;23.308;2023-05-07T03:25:35;9.70;;;8.50;;
6426;SDS011;3246;42.664;23.308;2023-05-07T03:28:01;11.80;;;9.03;;
6426;SDS011;3246;42.664;23.308;2023-05-07T03:30:28;9.23;;;8.13;;
6426;SDS011;3246;42.664;23.308;2023-05-07T03:32:55;10.30;;;8.40;;
6426;SDS011;3246;42.664;23.308;2023-05-07T03:35:22;10.33;;;8.90;;
6426;SDS011;3246;42.664;23.308;2023-05-07T03:37:48;9.27;;;8.23;;
6426;SDS011;3246;42.664;23.308;2023-05-07T03:40:17;9.60;;;8.60;;
6426;SDS011;3246;42.664;23.308;2023-05-07T03:42:44;12.73;;;8.87;;
6426;SDS011;3246;42.664;23.308;2023-05-07T03:45:10;12.10;;;10.37;;
6426;SDS011;3246;42.664;23.308;2023-05-07T03:47:37;13.30;;;9.70;;
6426;SDS011;3246;42.664;23.308;2023-05-07T03:50:04;10.00;;;8.97;;
6426;SDS011;3246;42.664;23.308;2023-05-07T03:52:31;11.43;;;9.90;;
6426;SDS011;3246;42.664;23.308;2023-05-07T03:54:58;11.70;;;9.17;;
6426;SDS011;3246;42.664;23.308;2023-05-07T03:57:26;12.47;;;11.17;;
6426;SDS011;3246;42.664;23.308;2023-05-07T03:59:53;12.20;;;9.88;;
6426;SDS011;3246;42.664;23.308;2023-05-07T04:02:20;11.57;;;9.60;;
6426;SDS011;3246;42.664;23.308;2023-05-07T04:04:48;13.80;;;9.88;;
6426;SDS011;3246;42.664;23.308;2023-05-07T04:07:14;12.57;;;10.33;;
6426;SDS011;3246;42.664;23.308;2023-05-07T04:09:41;15.53;;;13.50;;
6426;SDS011;3246;42.664;23.308;2023-05-07T04:12:08;13.37;;;12.07;;
6426;SDS011;3246;42.664;23.308;2023-05-07T04:14:36;14.57;;;12.17;;
6426;SDS011;3246;42.664;23.308;2023-05-07T04:17:03;13.37;;;12.00;;
6426;SDS011;3246;42.664;23.308;2023-05-07T04:19:32;13.77;;;11.03;;
6426;SDS011;3246;42.664;23.308;2023-05-07T04:21:59;14.93;;;11.33;;
6426;SDS011;3246;42.664;23.308;2023-05-07T04:24:26;16.37;;;11.47;;
6426;SDS011;3246;42.664;23.308;2023-05-07T04:26:53;14.27;;;10.60;;
6426;SDS011;3246;42.664;23.308;2023-05-07T04:29:20;11.67;;;10.20;;
6426;SDS011;3246;42.664;23.308;2023-05-07T04:31:48;16.23;;;10.43;;
6426;SDS011;3246;42.664;23.308;2023-05-07T04:34:15;21.83;;;11.47;;
6426;SDS011;3246;42.664;23.308;2023-05-07T04:36:41;13.00;;;10.80;;
6426;SDS011;3246;42.664;23.308;2023-05-07T04:39:08;12.40;;;11.10;;
6426;SDS011;3246;42.664;23.308;2023-05-07T04:41:35;12.83;;;10.93;;
6426;SDS011;3246;42.664;23.308;2023-05-07T04:44:02;14.48;;;11.02;;
6426;SDS011;3246;42.664;23.308;2023-05-07T04:46:31;14.03;;;11.07;;
6426;SDS011;3246;42.664;23.308;2023-05-07T04:48:59;12.03;;;10.80;;
6426;SDS011;3246;42.664;23.308;2023-05-07T04:51:25;13.45;;;11.45;;
6426;SDS011;3246;42.664;23.308;2023-05-07T04:53:53;10.90;;;9.80;;
6426;SDS011;3246;42.664;23.308;2023-05-07T04:56:19;10.23;;;9.32;;
6426;SDS011;3246;42.664;23.308;2023-05-07T04:58:46;11.50;;;10.40;;
6426;SDS011;3246;42.664;23.308;2023-05-07T05:01:13;12.18;;;10.02;;
6426;SDS011;3246;42.664;23.308;2023-05-07T05:03:40;11.23;;;10.13;;
6426;SDS011;3246;42.664;23.308;2023-05-07T05:06:08;12.07;;;10.20;;
6426;SDS011;3246;42.664;23.308;2023-05-07T05:08:35;11.18;;;10.05;;
6426;SDS011;3246;42.664;23.308;2023-05-07T05:11:01;9.65;;;8.65;;
6426;SDS011;3246;42.664;23.308;2023-05-07T05:13:28;10.65;;;9.65;;
6426;SDS011;3246;42.664;23.308;2023-05-07T05:15:55;11.30;;;10.18;;
6426;SDS011;3246;42.664;23.308;2023-05-07T05:18:22;47.83;;;32.75;;
6426;SDS011;3246;42.664;23.308;2023-05-07T05:20:49;11.77;;;9.95;;
6426;SDS011;3246;42.664;23.308;2023-05-07T05:23:18;13.68;;;10.48;;
6426;SDS011;3246;42.664;23.308;2023-05-07T05:25:45;10.30;;;9.38;;
6426;SDS011;3246;42.664;23.308;2023-05-07T05:28:12;14.55;;;12.20;;
6426;SDS011;3246;42.664;23.308;2023-05-07T05:30:38;12.00;;;10.88;;
6426;SDS011;3246;42.664;23.308;2023-05-07T05:33:05;12.20;;;10.90;;
6426;SDS011;3246;42.664;23.308;2023-05-07T05:35:32;10.75;;;9.30;;
6426;SDS011;3246;42.664;23.308;2023-05-07T05:38:00;13.98;;;9.13;;
6426;SDS011;3246;42.664;23.308;2023-05-07T05:40:28;10.88;;;9.77;;
6426;SDS011;3246;42.664;23.308;2023-05-07T05:42:55;13.02;;;10.30;;
6426;SDS011;3246;42.664;23.308;2023-05-07T05:45:22;11.43;;;10.32;;
6426;SDS011;3246;42.664;23.308;2023-05-07T05:47:48;11.18;;;9.73;;
6426;SDS011;3246;42.664;23.308;2023-05-07T05:50:15;11.63;;;9.45;;
6426;SDS011;3246;42.664;23.308;2023-05-07T05:52:42;10.65;;;9.32;;
6426;SDS011;3246;42.664;23.308;2023-05-07T05:55:09;11.77;;;9.55;;
6426;SDS011;3246;42.664;23.308;2023-05-07T05:57:37;13.20;;;10.82;;
6426;SDS011;3246;42.664;23.308;2023-05-07T06:00:05;88.38;;;58.17;;
6426;SDS011;3246;42.664;23.308;2023-05-07T06:02:32;76.82;;;58.65;;
6426;SDS011;3246;42.664;23.308;2023-05-07T06:04:59;37.97;;;27.52;;
6426;SDS011;3246;42.664;23.308;2023-05-07T06:07:26;13.25;;;11.82;;
6426;SDS011;3246;42.664;23.308;2023-05-07T06:09:53;13.02;;;10.40;;
6426;SDS011;3246;42.664;23.308;2023-05-07T06:12:20;13.02;;;9.43;;
6426;SDS011;3246;42.664;23.308;2023-05-07T06:14:48;16.00;;;13.80;;
6426;SDS011;3246;42.664;23.308;2023-05-07T06:17:15;12.73;;;11.43;;
6426;SDS011;3246;42.664;23.308;2023-05-07T06:19:42;12.05;;;10.75;;
6426;SDS011;3246;42.664;23.308;2023-05-07T06:22:08;12.68;;;9.77;;
6426;SDS011;3246;42.664;23.308;2023-05-07T06:24:35;13.25;;;9.38;;
6426;SDS011;3246;42.664;23.308;2023-05-07T06:27:02;10.27;;;9.10;;
6426;SDS011;3246;42.664;23.308;2023-05-07T06:29:29;11.52;;;10.32;;
6426;SDS011;3246;42.664;23.308;2023-05-07T06:32:05;12.82;;;10.25;;
6426;SDS011;3246;42.664;23.308;2023-05-07T06:34:32;11.18;;;10.07;;
6426;SDS011;3246;42.664;23.308;2023-05-07T06:36:59;16.05;;;10.40;;
6426;SDS011;3246;42.664;23.308;2023-05-07T06:39:26;11.63;;;10.43;;
6426;SDS011;3246;42.664;23.308;2023-05-07T06:41:53;12.13;;;10.93;;
6426;SDS011;3246;42.664;23.308;2023-05-07T06:44:20;12.25;;;10.95;;
6426;SDS011;3246;42.664;23.308;2023-05-07T06:46:46;12.77;;;11.27;;
6426;SDS011;3246;42.664;23.308;2023-05-07T06:49:15;10.20;;;8.77;;
6426;SDS011;3246;42.664;23.308;2023-05-07T06:51:42;10.13;;;9.20;;
6426;SDS011;3246;42.664;23.308;2023-05-07T06:54:09;12.10;;;9.32;;
6426;SDS011;3246;42.664;23.308;2023-05-07T06:56:36;11.18;;;10.07;;
6426;SDS011;3246;42.664;23.308;2023-05-07T06:59:03;14.02;;;10.15;;
6426;SDS011;3246;42.664;23.308;2023-05-07T07:01:30;10.45;;;9.18;;
6426;SDS011;3246;42.664;23.308;2023-05-07T07:03:56;12.57;;;10.07;;
6426;SDS011;3246;42.664;23.308;2023-05-07T07:06:24;10.98;;;9.82;;
6426;SDS011;3246;42.664;23.308;2023-05-07T07:08:52;10.43;;;9.35;;
6426;SDS011;3246;42.664;23.308;2023-05-07T07:11:18;12.48;;;10.52;;
6426;SDS011;3246;42.664;23.308;2023-05-07T07:13:45;10.90;;;9.75;;
6426;SDS011;3246;42.664;23.308;2023-05-07T07:16:12;10.57;;;9.40;;
6426;SDS011;3246;42.664;23.308;2023-05-07T07:18:39;14.07;;;9.93;;
6426;SDS011;3246;42.664;23.308;2023-05-07T07:21:06;10.40;;;9.43;;
6426;SDS011;3246;42.664;23.308;2023-05-07T07:23:34;10.23;;;9.27;;
6426;SDS011;3246;42.664;23.308;2023-05-07T07:26:01;10.18;;;8.77;;
6426;SDS011;3246;42.664;23.308;2023-05-07T07:28:27;9.15;;;7.97;;
6426;SDS011;3246;42.664;23.308;2023-05-07T07:30:54;9.60;;;8.40;;
6426;SDS011;3246;42.664;23.308;2023-05-07T07:33:21;9.63;;;8.73;;
6426;SDS011;3246;42.664;23.308;2023-05-07T07:35:48;13.90;;;7.43;;
6426;SDS011;3246;42.664;23.308;2023-05-07T07:38:14;8.57;;;7.68;;
6426;SDS011;3246;42.664;23.308;2023-05-07T07:40:42;13.05;;;7.82;;
6426;SDS011;3246;42.664;23.308;2023-05-07T07:43:11;11.75;;;8.55;;
6426;SDS011;3246;42.664;23.308;2023-05-07T07:45:37;11.02;;;8.25;;
6426;SDS011;3246;42.664;23.308;2023-05-07T07:48:04;10.15;;;8.05;;
6426;SDS011;3246;42.664;23.308;2023-05-07T07:50:31;10.25;;;9.27;;
6426;SDS011;3246;42.664;23.308;2023-05-07T07:52:58;12.98;;;9.23;;
6426;SDS011;3246;42.664;23.308;2023-05-07T07:55:25;11.73;;;8.98;;
6426;SDS011;3246;42.664;23.308;2023-05-07T07:57:53;9.52;;;8.57;;
6426;SDS011;3246;42.664;23.308;2023-05-07T08:00:20;12.00;;;10.80;;
6426;SDS011;3246;42.664;23.308;2023-05-07T08:02:47;11.27;;;10.07;;
6426;SDS011;3246;42.664;23.308;2023-05-07T08:05:14;9.55;;;8.63;;
6426;SDS011;3246;42.664;23.308;2023-05-07T08:07:41;10.25;;;9.25;;
6426;SDS011;3246;42.664;23.308;2023-05-07T08:10:08;8.50;;;7.70;;
6426;SDS011;3246;42.664;23.308;2023-05-07T08:12:35;9.82;;;8.40;;
6426;SDS011;3246;42.664;23.308;2023-05-07T08:15:04;11.77;;;8.25;;
6426;SDS011;3246;42.664;23.308;2023-05-07T08:17:31;9.25;;;8.18;;
6426;SDS011;3246;42.664;23.308;2023-05-07T08:19:58;8.77;;;7.97;;
6426;SDS011;3246;42.664;23.308;2023-05-07T08:22:25;12.73;;;8.45;;
6426;SDS011;3246;42.664;23.308;2023-05-07T08:24:52;9.95;;;8.85;;
6426;SDS011;3246;42.664;23.308;2023-05-07T08:27:18;10.63;;;8.15;;
6426;SDS011;3246;42.664;23.308;2023-05-07T08:29:45;8.52;;;7.75;;
6426;SDS011;3246;42.664;23.308;2023-05-07T08:32:14;8.82;;;7.88;;
6426;SDS011;3246;42.664;23.308;2023-05-07T08:34:41;8.82;;;7.95;;
6426;SDS011;3246;42.664;23.308;2023-05-07T08:37:08;9.00;;;8.20;;
6426;SDS011;3246;42.664;23.308;2023-05-07T08:39:35;10.15;;;8.13;;
6426;SDS011;3246;42.664;23.308;2023-05-07T08:42:01;9.45;;;7.47;;
6426;SDS011;3246;42.664;23.308;2023-05-07T08:44:32;7.72;;;7.03;;
6426;SDS011;3246;42.664;23.308;2023-05-07T08:47:01;12.85;;;7.22;;
6426;SDS011;3246;42.664;23.308;2023-05-07T08:49:29;7.35;;;6.70;;
6426;SDS011;3246;42.664;23.308;2023-05-07T08:51:56;7.05;;;5.95;;
6426;SDS011;3246;42.664;23.308;2023-05-07T08:54:23;5.88;;;5.32;;
6426;SDS011;3246;42.664;23.308;2023-05-07T08:56:52;5.45;;;4.95;;
6426;SDS011;3246;42.664;23.308;2023-05-07T08:59:18;5.88;;;5.35;;
6426;SDS011;3246;42.664;23.308;2023-05-07T09:01:45;5.75;;;4.97;;
6426;SDS011;3246;42.664;23.308;2023-05-07T09:04:12;5.53;;;5.05;;
6426;SDS011;3246;42.664;23.308;2023-05-07T09:06:40;7.20;;;5.72;;
6426;SDS011;3246;42.664;23.308;2023-05-07T09:09:07;6.55;;;5.30;;
6426;SDS011;3246;42.664;23.308;2023-05-07T09:11:34;6.18;;;5.68;;
6426;SDS011;3246;42.664;23.308;2023-05-07T09:14:01;6.30;;;5.70;;
6426;SDS011;3246;42.664;23.308;2023-05-07T09:16:29;5.88;;;5.38;;
6426;SDS011;3246;42.664;23.308;2023-05-07T09:18:57;6.35;;;5.25;;
6426;SDS011;3246;42.664;23.308;2023-05-07T09:21:25;10.27;;;7.25;;
6426;SDS011;3246;42.664;23.308;2023-05-07T09:23:53;6.50;;;5.85;;
6426;SDS011;3246;42.664;23.308;2023-05-07T09:26:21;9.23;;;7.53;;
6426;SDS011;3246;42.664;23.308;2023-05-07T09:28:48;6.85;;;6.13;;
6426;SDS011;3246;42.664;23.308;2023-05-07T09:31:15;6.75;;;5.43;;
6426;SDS011;3246;42.664;23.308;2023-05-07T09:33:42;5.50;;;4.55;;
6426;SDS011;3246;42.664;23.308;2023-05-07T09:36:09;8.30;;;4.47;;
6426;SDS011;3246;42.664;23.308;2023-05-07T09:38:37;7.22;;;5.68;;
6426;SDS011;3246;42.664;23.308;2023-05-07T09:41:06;6.28;;;4.93;;
6426;SDS011;3246;42.664;23.308;2023-05-07T09:43:34;5.72;;;4.10;;
6426;SDS011;3246;42.664;23.308;2023-05-07T09:46:02;7.20;;;4.32;;
6426;SDS011;3246;42.664;23.308;2023-05-07T09:48:32;5.53;;;5.18;;
6426;SDS011;3246;42.664;23.308;2023-05-07T09:51:04;7.80;;;5.80;;
6426;SDS011;3246;42.664;23.308;2023-05-07T09:53:37;5.93;;;4.55;;
6426;SDS011;3246;42.664;23.308;2023-05-07T09:56:07;5.32;;;4.15;;
6426;SDS011;3246;42.664;23.308;2023-05-07T09:58:36;5.10;;;4.70;;
6426;SDS011;3246;42.664;23.308;2023-05-07T10:01:03;5.15;;;4.30;;
6426;SDS011;3246;42.664;23.308;2023-05-07T10:03:30;4.25;;;3.42;;
6426;SDS011;3246;42.664;23.308;2023-05-07T10:05:59;4.65;;;4.25;;
6426;SDS011;3246;42.664;23.308;2023-05-07T10:08:27;4.93;;;4.53;;
6426;SDS011;3246;42.664;23.308;2023-05-07T10:10:56;4.18;;;3.78;;
6426;SDS011;3246;42.664;23.308;2023-05-07T10:13:24;4.57;;;4.28;;
6426;SDS011;3246;42.664;23.308;2023-05-07T10:15:51;8.68;;;4.07;;
6426;SDS011;3246;42.664;23.308;2023-05-07T10:18:19;3.65;;;3.45;;
6426;SDS011;3246;42.664;23.308;2023-05-07T10:20:54;9.25;;;5.13;;
6426;SDS011;3246;42.664;23.308;2023-05-07T10:23:27;5.68;;;3.65;;
6426;SDS011;3246;42.664;23.308;2023-05-07T10:25:55;4.55;;;4.10;;
6426;SDS011;3246;42.664;23.308;2023-05-07T10:28:25;4.43;;;4.13;;
6426;SDS011;3246;42.664;23.308;2023-05-07T10:30:58;3.28;;;3.08;;
6426;SDS011;3246;42.664;23.308;2023-05-07T10:33:34;9.88;;;3.30;;
6426;SDS011;3246;42.664;23.308;2023-05-07T10:36:02;4.68;;;3.75;;
6426;SDS011;3246;42.664;23.308;2023-05-07T10:38:33;5.75;;;4.15;;
6426;SDS011;3246;42.664;23.308;2023-05-07T10:41:00;3.35;;;3.05;;
6426;SDS011;3246;42.664;23.308;2023-05-07T10:43:39;3.58;;;3.33;;
6426;SDS011;3246;42.664;23.308;2023-05-07T10:46:11;4.00;;;3.70;;
6426;SDS011;3246;42.664;23.308;2023-05-07T10:51:37;3.97;;;3.78;;
6426;SDS011;3246;42.664;23.308;2023-05-07T10:54:21;10.70;;;3.80;;
6426;SDS011;3246;42.664;23.308;2023-05-07T10:56:49;3.15;;;2.95;;
6426;SDS011;3246;42.664;23.308;2023-05-07T11:02:06;4.22;;;3.85;;
6426;SDS011;3246;42.664;23.308;2023-05-07T11:04:34;4.07;;;3.67;;
6426;SDS011;3246;42.664;23.308;2023-05-07T11:07:21;5.30;;;4.90;;
6426;SDS011;3246;42.664;23.308;2023-05-07T11:09:54;6.43;;;3.53;;
6426;SDS011;3246;42.664;23.308;2023-05-07T11:15:35;5.10;;;4.10;;
6426;SDS011;3246;42.664;23.308;2023-05-07T11:18:03;4.40;;;4.00;;
6426;SDS011;3246;42.664;23.308;2023-05-07T11:26:43;4.80;;;3.33;;
6426;SDS011;3246;42.664;23.308;2023-05-07T11:29:12;3.42;;;3.08;;
6426;SDS011;3246;42.664;23.308;2023-05-07T11:31:40;3.58;;;3.28;;
6426;SDS011;3246;42.664;23.308;2023-05-07T11:34:08;4.20;;;3.70;;
6426;SDS011;3246;42.664;23.308;2023-05-07T11:36:35;4.05;;;3.67;;
6426;SDS011;3246;42.664;23.308;2023-05-07T11:39:22;4.43;;;3.47;;
6426;SDS011;3246;42.664;23.308;2023-05-07T11:41:50;5.63;;;3.85;;
6426;SDS011;3246;42.664;23.308;2023-05-07T11:44:16;3.20;;;3.00;;
6426;SDS011;3246;42.664;23.308;2023-05-07T11:46:45;3.72;;;3.53;;
6426;SDS011;3246;42.664;23.308;2023-05-07T11:49:11;5.38;;;3.13;;
6426;SDS011;3246;42.664;23.308;2023-05-07T11:51:38;6.80;;;6.10;;
6426;SDS011;3246;42.664;23.308;2023-05-07T11:54:07;6.70;;;6.00;;
6426;SDS011;3246;42.664;23.308;2023-05-07T11:56:36;8.25;;;5.75;;
6426;SDS011;3246;42.664;23.308;2023-05-07T11:59:04;5.28;;;4.90;;
6426;SDS011;3246;42.664;23.308;2023-05-07T12:01:31;3.40;;;3.20;;
6426;SDS011;3246;42.664;23.308;2023-05-07T12:03:59;5.03;;;4.53;;
6426;SDS011;3246;42.664;23.308;2023-05-07T12:06:29;4.00;;;3.70;;
6426;SDS011;3246;42.664;23.308;2023-05-07T12:08:56;4.97;;;3.60;;
6426;SDS011;3246;42.664;23.308;2023-05-07T12:11:23;3.47;;;3.17;;
6426;SDS011;3246;42.664;23.308;2023-05-07T12:13:51;3.67;;;3.33;;
6426;SDS011;3246;42.664;23.308;2023-05-07T12:16:18;3.35;;;3.15;;
6426;SDS011;3246;42.664;23.308;2023-05-07T12:18:45;10.50;;;3.35;;
6426;SDS011;3246;42.664;23.308;2023-05-07T12:21:14;4.55;;;3.20;;
6426;SDS011;3246;42.664;23.308;2023-05-07T12:23:42;3.92;;;2.22;;
6426;SDS011;3246;42.664;23.308;2023-05-07T12:26:09;3.38;;;2.47;;
6426;SDS011;3246;42.664;23.308;2023-05-07T12:28:36;3.40;;;2.30;;
6426;SDS011;3246;42.664;23.308;2023-05-07T12:31:04;3.45;;;2.88;;
6426;SDS011;3246;42.664;23.308;2023-05-07T12:33:31;3.00;;;2.80;;
6426;SDS011;3246;42.664;23.308;2023-05-07T12:36:00;2.92;;;2.70;;
6426;SDS011;3246;42.664;23.308;2023-05-07T12:38:35;2.92;;;2.75;;
6426;SDS011;3246;42.664;23.308;2023-05-07T12:41:03;3.35;;;3.05;;
6426;SDS011;3246;42.664;23.308;2023-05-07T12:43:32;4.57;;;2.78;;
6426;SDS011;3246;42.664;23.308;2023-05-07T12:46:00;3.15;;;2.45;;
6426;SDS011;3246;42.664;23.308;2023-05-07T12:48:27;3.50;;;2.15;;
6426;SDS011;3246;42.664;23.308;2023-05-07T12:50:54;2.08;;;1.95;;
6426;SDS011;3246;42.664;23.308;2023-05-07T12:53:23;2.80;;;2.63;;
6426;SDS011;3246;42.664;23.308;2023-05-07T12:55:52;2.90;;;2.70;;
6426;SDS011;3246;42.664;23.308;2023-05-07T12:58:21;5.82;;;5.28;;
6426;SDS011;3246;42.664;23.308;2023-05-07T13:00:51;4.07;;;3.50;;
6426;SDS011;3246;42.664;23.308;2023-05-07T13:03:21;6.40;;;5.40;;
6426;SDS011;3246;42.664;23.308;2023-05-07T13:05:50;2.90;;;2.70;;
6426;SDS011;3246;42.664;23.308;2023-05-07T13:08:23;2.80;;;2.60;;
6426;SDS011;3246;42.664;23.308;2023-05-07T13:10:55;2.78;;;2.58;;
6426;SDS011;3246;42.664;23.308;2023-05-07T13:13:22;5.85;;;2.58;;
6426;SDS011;3246;42.664;23.308;2023-05-07T13:15:50;2.70;;;2.50;;
6426;SDS011;3246;42.664;23.308;2023-05-07T13:18:16;4.35;;;2.75;;
6426;SDS011;3246;42.664;23.308;2023-05-07T13:20:43;3.25;;;2.95;;
6426;SDS011;3246;42.664;23.308;2023-05-07T13:23:10;2.55;;;2.45;;
6426;SDS011;3246;42.664;23.308;2023-05-07T13:25:37;4.88;;;3.00;;
6426;SDS011;3246;42.664;23.308;2023-05-07T13:28:05;2.65;;;2.45;;
6426;SDS011;3246;42.664;23.308;2023-05-07T13:30:32;2.95;;;2.75;;
6426;SDS011;3246;42.664;23.308;2023-05-07T13:32:59;3.33;;;3.10;;
6426;SDS011;3246;42.664;23.308;2023-05-07T13:35:25;3.33;;;3.03;;
6426;SDS011;3246;42.664;23.308;2023-05-07T13:37:52;4.32;;;3.45;;
6426;SDS011;3246;42.664;23.308;2023-05-07T13:40:20;3.35;;;3.15;;
6426;SDS011;3246;42.664;23.308;2023-05-07T13:42:47;3.20;;;2.97;;
6426;SDS011;3246;42.664;23.308;2023-05-07T13:45:15;2.75;;;2.47;;
6426;SDS011;3246;42.664;23.308;2023-05-07T13:47:42;3.22;;;2.95;;
6426;SDS011;3246;42.664;23.308;2023-05-07T13:50:09;2.83;;;2.63;;
6426;SDS011;3246;42.664;23.308;2023-05-07T13:52:39;4.07;;;2.55;;
6426;SDS011;3246;42.664;23.308;2023-05-07T13:55:08;2.78;;;2.58;;
6426;SDS011;3246;42.664;23.308;2023-05-07T13:57:35;2.90;;;2.70;;
6426;SDS011;3246;42.664;23.308;2023-05-07T14:00:02;3.30;;;3.10;;
6426;SDS011;3246;42.664;23.308;2023-05-07T14:02:31;2.97;;;2.60;;
6426;SDS011;3246;42.664;23.308;2023-05-07T14:04:58;2.67;;;2.30;;
6426;SDS011;3246;42.664;23.308;2023-05-07T14:07:25;4.63;;;3.00;;
6426;SDS011;3246;42.664;23.308;2023-05-07T14:09:52;3.15;;;2.95;;
6426;SDS011;3246;42.664;23.308;2023-05-07T14:12:18;3.30;;;2.97;;
6426;SDS011;3246;42.664;23.308;2023-05-07T14:14:45;2.90;;;2.63;;
6426;SDS011;3246;42.664;23.308;2023-05-07T14:17:12;3.03;;;2.75;;
6426;SDS011;3246;42.664;23.308;2023-05-07T14:19:40;3.25;;;3.05;;
6426;SDS011;3246;42.664;23.308;2023-05-07T14:22:07;3.05;;;2.53;;
6426;SDS011;3246;42.664;23.308;2023-05-07T14:24:34;3.45;;;3.15;;
6426;SDS011;3246;42.664;23.308;2023-05-07T14:27:00;2.78;;;2.60;;
6426;SDS011;3246;42.664;23.308;2023-05-07T14:29:27;4.10;;;2.55;;
6426;SDS011;3246;42.664;23.308;2023-05-07T14:31:54;3.17;;;2.97;;
6426;SDS011;3246;42.664;23.308;2023-05-07T14:34:21;3.53;;;3.00;;
6426;SDS011;3246;42.664;23.308;2023-05-07T14:36:49;5.65;;;3.20;;
6426;SDS011;3246;42.664;23.308;2023-05-07T14:39:17;3.13;;;2.83;;
6426;SDS011;3246;42.664;23.308;2023-05-07T14:41:43;4.20;;;2.97;;
6426;SDS011;3246;42.664;23.308;2023-05-07T14:44:10;8.25;;;3.33;;
6426;SDS011;3246;42.664;23.308;2023-05-07T14:46:37;5.03;;;3.72;;
6426;SDS011;3246;42.664;23.308;2023-05-07T14:49:04;4.05;;;3.75;;
6426;SDS011;3246;42.664;23.308;2023-05-07T14:51:30;4.57;;;3.40;;
6426;SDS011;3246;42.664;23.308;2023-05-07T14:53:59;4.07;;;3.17;;
6426;SDS011;3246;42.664;23.308;2023-05-07T14:56:26;3.28;;;3.08;;
6426;SDS011;3246;42.664;23.308;2023-05-07T14:58:53;12.52;;;4.97;;
6426;SDS011;3246;42.664;23.308;2023-05-07T15:01:20;5.78;;;4.07;;
6426;SDS011;3246;42.664;23.308;2023-05-07T15:03:47;3.45;;;2.88;;
6426;SDS011;3246;42.664;23.308;2023-05-07T15:06:14;4.78;;;3.80;;
6426;SDS011;3246;42.664;23.308;2023-05-07T15:08:41;3.15;;;2.78;;
6426;SDS011;3246;42.664;23.308;2023-05-07T15:11:09;2.85;;;2.65;;